createdAt,value
2019-04-03T00:03:43.043Z,100094.70
2019-04-03T00:08:47.209Z,100094.09
2019-04-03T00:13:51.418Z,100084.42
2019-04-03T00:18:55.636Z,100080.70
2019-04-03T00:23:59.853Z,100090.88
2019-04-03T00:29:04.132Z,100089.86
2019-04-03T00:34:08.356Z,100090.34
2019-04-03T00:39:12.581Z,100091.68
2019-04-03T00:44:17.896Z,100095.14
2019-04-03T00:49:22.127Z,100098.72
2019-04-03T00:54:26.950Z,100103.59
2019-04-03T00:59:31.501Z,100106.80
2019-04-03T01:04:35.737Z,100094.88
2019-04-03T01:09:39.985Z,100109.20
2019-04-03T01:14:44.228Z,100093.76
2019-04-03T01:19:48.465Z,100095.90
2019-04-03T01:24:52.702Z,100088.16
2019-04-03T01:29:57.090Z,100083.67
2019-04-03T01:35:01.367Z,100081.73
2019-04-03T01:40:06.335Z,100077.34
2019-04-03T01:45:10.932Z,100072.39
2019-04-03T01:50:15.186Z,100074.29
2019-04-03T01:55:19.423Z,100062.91
2019-04-03T02:00:23.651Z,100050.97
2019-04-03T02:05:28.255Z,100041.84
2019-04-03T02:10:33.691Z,100045.38
2019-04-03T02:15:37.935Z,100031.39
2019-04-03T02:20:42.172Z,100015.96
2019-04-03T02:25:46.407Z,100015.66
2019-04-03T02:30:50.643Z,100016.67
2019-04-03T02:35:54.926Z,100017.72
2019-04-03T02:40:59.460Z,100008.50
2019-04-03T02:46:03.895Z,100015.93
2019-04-03T02:51:08.540Z,100022.38
2019-04-03T02:56:13.831Z,100021.63
2019-04-03T03:01:18.207Z,100025.41
2019-04-03T03:06:22.753Z,100017.80
2019-04-03T03:11:27.895Z,100019.87
2019-04-03T03:16:32.229Z,100015.60
2019-04-03T03:21:43.859Z,100017.41
2019-04-03T03:26:47.225Z,100013.91
2019-04-03T03:32:11.332Z,100020.50
2019-04-03T03:37:00.121Z,100020.34
2019-04-03T03:42:04.179Z,100013.30
2019-04-03T03:47:09.243Z,100008.23
2019-04-03T03:52:15.767Z,100001.48
2019-04-03T03:57:21.040Z,100002.75
2019-04-03T04:02:25.668Z,100009.34
2019-04-03T04:07:30.234Z,100005.56
2019-04-03T04:12:39.788Z,99995.44
2019-04-03T04:17:41.433Z,99998.88
2019-04-03T04:22:49.007Z,100003.86
2019-04-03T04:27:52.199Z,100004.52
2019-04-03T04:32:56.638Z,100003.19
2019-04-03T04:38:01.030Z,99988.13
2019-04-03T04:43:07.686Z,99991.33
2019-04-03T04:48:11.444Z,99997.55
2019-04-03T04:53:15.677Z,100003.86
2019-04-03T04:58:19.915Z,100001.55
2019-04-03T05:03:24.169Z,99992.54
2019-04-03T05:08:28.412Z,99980.82
2019-04-03T05:13:32.639Z,99997.95
2019-04-03T05:18:37.085Z,99997.24
2019-04-03T05:23:41.571Z,99989.56
2019-04-03T05:28:55.767Z,99985.86
2019-04-03T05:33:52.079Z,99983.59
2019-04-03T05:38:56.314Z,99987.96
2019-04-03T05:44:02.374Z,99986.95
2019-04-03T05:49:06.641Z,99989.55
2019-04-03T05:54:13.613Z,99999.77
2019-04-03T05:59:16.915Z,99995.03
2019-04-03T06:04:21.363Z,99999.30
2019-04-03T06:09:25.689Z,99999.11
2019-04-03T06:14:30.052Z,99991.80
2019-04-03T06:19:35.423Z,99986.16
2019-04-03T06:24:40.382Z,99982.18
2019-04-03T06:29:44.899Z,99983.24
2019-04-03T06:34:49.146Z,99990.07
2019-04-03T06:39:54.861Z,99981.19
2019-04-03T06:44:59.208Z,99978.87
2019-04-03T06:50:03.408Z,99973.88
2019-04-03T06:55:07.659Z,99970.89
2019-04-03T07:00:12.402Z,99967.72
2019-04-03T07:05:16.657Z,99970.27
2019-04-03T07:10:25.688Z,99970.80
2019-04-03T07:15:26.874Z,99972.16
2019-04-03T07:20:31.470Z,99975.23
2019-04-03T07:25:35.872Z,99977.33
2019-04-03T07:30:40.147Z,99982.09
2019-04-03T07:35:44.563Z,99987.50
2019-04-03T07:40:50.961Z,99983.84
2019-04-03T07:45:54.811Z,99983.66
2019-04-03T07:50:59.054Z,99984.77
2019-04-03T07:56:03.289Z,99988.52
2019-04-03T08:01:09.547Z,99993.20
2019-04-03T08:06:13.579Z,99992.62
2019-04-03T08:11:17.921Z,99978.83
2019-04-03T08:16:22.157Z,99968.73
2019-04-03T08:21:28.068Z,99963.55
2019-04-03T08:26:32.488Z,99967.14
2019-04-03T08:31:36.725Z,99972.30
2019-04-03T08:36:40.968Z,99973.16
2019-04-03T08:41:45.447Z,99969.86
2019-04-03T08:46:49.867Z,99973.34
2019-04-03T08:51:54.313Z,99963.95
2019-04-03T08:56:58.548Z,99956.47
2019-04-03T09:02:03.135Z,99945.98
2019-04-03T09:07:07.690Z,99939.75
2019-04-03T09:12:11.929Z,99940.30
2019-04-03T09:17:16.202Z,99939.23
2019-04-03T09:22:21.600Z,99928.96
2019-04-03T09:27:26.477Z,99931.58
2019-04-03T09:32:30.725Z,99925.84
2019-04-03T09:37:37.779Z,99918.03
2019-04-03T09:42:40.942Z,99917.02
2019-04-03T09:47:45.181Z,99907.27
2019-04-03T09:52:50.499Z,99897.47
2019-04-03T09:57:54.951Z,99888.95
2019-04-03T10:02:59.227Z,99878.43
2019-04-03T10:08:03.652Z,99881.39
2019-04-03T10:13:07.995Z,99876.67
2019-04-03T10:18:12.247Z,99866.77
2019-04-03T10:23:16.700Z,99857.97
2019-04-03T10:28:21.117Z,99854.32
2019-04-03T10:33:25.402Z,99848.11
2019-04-03T10:38:29.629Z,99839.17
2019-04-03T10:43:36.294Z,99837.22
2019-04-03T10:48:40.137Z,99835.86
2019-04-03T10:53:44.484Z,99827.82
2019-04-03T10:58:51.691Z,99818.46
2019-04-03T11:03:56.392Z,99818.46
2019-04-03T11:09:00.680Z,99796.20
2019-04-03T11:14:07.797Z,99808.69
2019-04-03T11:19:11.596Z,99798.78
2019-04-03T11:24:15.864Z,99789.47
2019-04-03T11:29:20.657Z,99784.67
2019-04-03T11:34:25.039Z,99774.25
2019-04-03T11:39:29.281Z,99768.09
2019-04-03T11:44:33.629Z,99738.38
2019-04-03T11:49:38.037Z,99750.83
2019-04-03T11:54:42.344Z,99747.94
2019-04-03T11:59:47.394Z,99740.95
2019-04-03T12:04:52.244Z,99732.94
2019-04-03T12:09:56.526Z,99725.78
2019-04-03T12:15:00.747Z,99709.80
2019-04-03T12:20:08.697Z,99707.81
2019-04-03T12:25:12.161Z,99701.15
2019-04-03T12:30:17.510Z,99699.70
2019-04-03T12:35:21.803Z,99698.09
2019-04-03T12:40:26.162Z,99684.55
2019-04-03T12:45:30.501Z,99695.89
2019-04-03T12:50:34.735Z,99691.66
2019-04-03T12:55:42.029Z,99699.83
2019-04-03T13:00:46.165Z,99696.41
2019-04-03T13:05:50.874Z,99699.78
2019-04-03T13:10:55.132Z,99691.67
2019-04-03T13:15:59.432Z,99695.38
2019-04-03T13:21:03.724Z,99700.27
2019-04-03T13:26:07.994Z,99694.23
2019-04-03T13:31:12.911Z,99700.41
2019-04-03T13:36:18.699Z,99694.20
2019-04-03T13:41:23.983Z,99691.09
2019-04-03T13:46:28.194Z,99693.98
2019-04-03T13:51:32.442Z,99685.39
2019-04-03T13:56:36.991Z,99685.05
2019-04-03T14:01:41.805Z,99682.66
2019-04-03T14:06:46.210Z,99677.59
2019-04-03T14:11:50.461Z,99669.58
2019-04-03T14:16:54.843Z,99664.63
2019-04-03T14:22:00.617Z,99664.41
2019-04-03T14:27:17.391Z,99666.23
2019-04-03T14:32:13.979Z,99663.09
2019-04-03T14:37:17.449Z,99661.88
2019-04-03T14:42:22.009Z,99650.63
2019-04-03T14:47:27.869Z,99646.55
2019-04-03T14:52:32.936Z,99639.02
2019-04-03T14:57:37.521Z,99640.00
2019-04-03T15:02:42.219Z,99624.00
2019-04-03T15:07:49.043Z,99618.81
2019-04-03T15:12:52.673Z,99620.41
2019-04-03T15:17:57.017Z,99623.03
2019-04-03T15:23:03.932Z,99618.87
2019-04-03T15:28:07.346Z,99613.02
2019-04-03T15:33:11.653Z,99602.02
2019-04-03T15:38:18.628Z,99603.63
2019-04-03T15:43:22.320Z,99596.77
2019-04-03T15:48:27.148Z,99601.08
2019-04-03T15:53:31.486Z,99585.03
2019-04-03T15:58:37.765Z,99583.92
2019-04-03T16:03:42.090Z,99585.20
2019-04-03T16:08:47.894Z,99577.99
2019-04-03T16:13:52.653Z,99570.06
2019-04-03T16:18:57.280Z,99570.06
2019-04-03T16:24:01.649Z,99562.01
2019-04-03T16:29:07.336Z,99563.38
2019-04-03T16:34:13.317Z,99568.16
2019-04-03T16:39:18.002Z,99562.67
2019-04-03T16:44:24.077Z,99545.19
2019-04-03T16:49:28.718Z,99545.19
2019-04-03T16:54:33.695Z,99554.62
2019-04-03T16:59:38.594Z,99542.51
2019-04-03T17:04:42.912Z,99542.51
2019-04-03T17:09:47.680Z,99535.53
2019-04-03T17:14:52.896Z,99533.73
2019-04-03T17:19:58.013Z,99529.62
2019-04-03T17:25:02.454Z,99536.91
2019-04-03T17:30:08.130Z,99533.39
2019-04-03T17:35:14.121Z,99527.20
2019-04-03T17:40:19.997Z,99527.89
2019-04-03T17:45:24.351Z,99534.90
2019-04-03T17:50:29.705Z,99531.77
2019-04-03T17:55:34.825Z,99530.36
2019-04-03T18:00:39.193Z,99529.18
2019-04-03T18:05:43.473Z,99534.42
2019-04-03T18:10:47.764Z,99529.55
2019-04-03T18:15:53.168Z,99529.91
2019-04-03T18:20:57.984Z,99522.66
2019-04-03T18:26:02.272Z,99518.23
2019-04-03T18:31:06.660Z,99513.24
2019-04-03T18:36:11.615Z,99507.14
2019-04-03T18:41:16.991Z,99500.74
2019-04-03T18:46:31.913Z,99504.38
2019-04-03T18:51:28.623Z,99506.41
2019-04-03T18:56:33.227Z,99503.00
2019-04-03T19:01:38.024Z,99499.59
2019-04-03T19:06:44.832Z,99499.14
2019-04-03T19:11:51.450Z,99484.11
2019-04-03T19:16:56.503Z,99480.94
2019-04-03T19:22:01.632Z,99480.48
2019-04-03T19:27:06.188Z,99478.10
2019-04-03T19:32:12.214Z,99474.13
2019-04-03T19:37:17.377Z,99469.05
2019-04-03T19:42:22.002Z,99475.58
2019-04-03T19:47:26.884Z,99469.16
2019-04-03T19:52:31.713Z,99471.05
2019-04-03T19:57:36.808Z,99467.83
2019-04-03T20:02:43.091Z,99470.41
2019-04-03T20:07:48.277Z,99461.83
2019-04-03T20:12:53.297Z,99457.08
2019-04-03T20:17:57.772Z,99454.70
2019-04-03T20:23:02.388Z,99447.48
2019-04-03T20:28:06.770Z,99441.62
2019-04-03T20:33:11.690Z,99451.90
2019-04-03T20:38:16.606Z,99462.97
2019-04-03T20:43:20.859Z,99460.09
2019-04-03T20:48:28.024Z,99462.52
2019-04-03T20:53:31.092Z,99462.58
2019-04-03T20:58:35.365Z,99465.64
2019-04-03T21:03:39.612Z,99467.27
2019-04-03T21:08:43.865Z,99462.73
2019-04-03T21:13:48.124Z,99475.45
2019-04-03T21:18:52.566Z,99475.19
2019-04-03T21:23:56.824Z,99483.05
2019-04-03T21:29:01.115Z,99483.91
2019-04-03T21:34:05.679Z,99479.64
2019-04-03T21:39:12.607Z,99482.11
2019-04-03T21:44:15.912Z,99479.98
2019-04-03T21:49:20.154Z,99481.35
2019-04-03T21:54:24.880Z,99483.82
2019-04-03T21:59:30.537Z,99484.66
2019-04-03T22:04:34.748Z,99485.50
2019-04-03T22:09:39.004Z,99487.19
2019-04-03T22:14:43.468Z,99485.05
2019-04-03T22:19:47.769Z,99488.33
2019-04-03T22:24:52.011Z,99484.06
2019-04-03T22:29:56.247Z,99486.56
2019-04-03T22:35:01.035Z,99478.77
2019-04-03T22:40:09.917Z,99477.69
2019-04-03T22:45:12.628Z,99470.46
2019-04-03T22:50:16.899Z,99471.33
2019-04-03T22:55:21.163Z,99465.67
2019-04-03T23:00:25.864Z,99459.50
2019-04-03T23:05:30.620Z,99463.27
2019-04-03T23:10:35.458Z,99456.56
2019-04-03T23:15:39.935Z,99452.53
2019-04-03T23:20:44.590Z,99452.57
2019-04-03T23:25:48.885Z,99447.47
2019-04-03T23:30:53.181Z,99445.05
2019-04-03T23:35:57.481Z,99439.98
2019-04-03T23:41:01.801Z,99433.53
2019-04-03T23:46:06.096Z,99436.25
2019-04-03T23:51:22.371Z,99437.31
2019-04-03T23:56:16.535Z,99428.73
